sensor_id;sensor_type;location;lat;lon;timestamp;temperature;humidity
54832;DHT22;40730;53.068;6.572;2023-06-22T00:02:14;16.50;99.90
54832;DHT22;40730;53.068;6.572;2023-06-22T00:04:40;16.40;99.90
54832;DHT22;40730;53.068;6.572;2023-06-22T00:07:05;16.30;99.90
54832;DHT22;40730;53.068;6.572;2023-06-22T00:09:31;16.30;99.90
54832;DHT22;40730;53.068;6.572;2023-06-22T00:11:57;16.30;99.90
54832;DHT22;40730;53.068;6.572;2023-06-22T00:14:22;16.20;99.90
54832;DHT22;40730;53.068;6.572;2023-06-22T00:16:48;16.20;99.90
54832;DHT22;40730;53.068;6.572;2023-06-22T00:19:15;16.20;99.90
54832;DHT22;40730;53.068;6.572;2023-06-22T00:21:41;16.20;99.90
54832;DHT22;40730;53.068;6.572;2023-06-22T00:24:08;16.00;99.90
54832;DHT22;40730;53.068;6.572;2023-06-22T00:26:33;16.10;99.90
54832;DHT22;40730;53.068;6.572;2023-06-22T00:28:59;15.90;99.90
54832;DHT22;40730;53.068;6.572;2023-06-22T00:31:25;15.90;99.90
54832;DHT22;40730;53.068;6.572;2023-06-22T00:33:50;15.80;99.90
54832;DHT22;40730;53.068;6.572;2023-06-22T00:36:16;15.70;99.90
54832;DHT22;40730;53.068;6.572;2023-06-22T00:38:43;15.60;99.90
54832;DHT22;40730;53.068;6.572;2023-06-22T00:41:09;15.50;99.90
54832;DHT22;40730;53.068;6.572;2023-06-22T00:43:34;15.40;99.90
54832;DHT22;40730;53.068;6.572;2023-06-22T00:46:00;15.30;99.90
54832;DHT22;40730;53.068;6.572;2023-06-22T00:48:26;15.30;99.90
54832;DHT22;40730;53.068;6.572;2023-06-22T00:50:52;15.30;99.90
54832;DHT22;40730;53.068;6.572;2023-06-22T00:53:19;15.30;99.90
54832;DHT22;40730;53.068;6.572;2023-06-22T00:55:45;15.30;99.90
54832;DHT22;40730;53.068;6.572;2023-06-22T00:58:12;15.30;99.90
54832;DHT22;40730;53.068;6.572;2023-06-22T01:00:39;15.30;99.90
54832;DHT22;40730;53.068;6.572;2023-06-22T01:03:05;15.20;99.90
54832;DHT22;40730;53.068;6.572;2023-06-22T01:05:34;15.10;99.90
54832;DHT22;40730;53.068;6.572;2023-06-22T01:08:33;15.00;99.90
54832;DHT22;40730;53.068;6.572;2023-06-22T01:11:07;15.00;99.90
54832;DHT22;40730;53.068;6.572;2023-06-22T01:13:44;14.90;99.90
54832;DHT22;40730;53.068;6.572;2023-06-22T01:16:34;14.90;99.90
54832;DHT22;40730;53.068;6.572;2023-06-22T01:19:10;14.90;99.90
54832;DHT22;40730;53.068;6.572;2023-06-22T01:21:41;14.90;99.90
54832;DHT22;40730;53.068;6.572;2023-06-22T01:24:37;15.00;99.90
54832;DHT22;40730;53.068;6.572;2023-06-22T01:29:40;15.00;99.90
54832;DHT22;40730;53.068;6.572;2023-06-22T01:32:09;15.00;99.90
54832;DHT22;40730;53.068;6.572;2023-06-22T01:34:37;15.00;99.90
54832;DHT22;40730;53.068;6.572;2023-06-22T01:37:05;15.00;99.90
54832;DHT22;40730;53.068;6.572;2023-06-22T01:39:32;15.10;99.90
54832;DHT22;40730;53.068;6.572;2023-06-22T01:41:58;15.10;99.90
54832;DHT22;40730;53.068;6.572;2023-06-22T01:44:24;15.10;99.90
54832;DHT22;40730;53.068;6.572;2023-06-22T01:46:51;15.10;99.90
54832;DHT22;40730;53.068;6.572;2023-06-22T01:49:17;15.00;99.90
54832;DHT22;40730;53.068;6.572;2023-06-22T01:51:43;15.00;99.90
54832;DHT22;40730;53.068;6.572;2023-06-22T01:54:09;15.00;99.90
54832;DHT22;40730;53.068;6.572;2023-06-22T01:56:35;14.90;99.90
54832;DHT22;40730;53.068;6.572;2023-06-22T01:59:50;14.90;99.90
54832;DHT22;40730;53.068;6.572;2023-06-22T02:02:04;14.80;99.90
54832;DHT22;40730;53.068;6.572;2023-06-22T02:04:51;14.80;99.90
54832;DHT22;40730;53.068;6.572;2023-06-22T02:07:18;14.70;99.90
54832;DHT22;40730;53.068;6.572;2023-06-22T02:09:47;14.70;99.90
54832;DHT22;40730;53.068;6.572;2023-06-22T02:12:18;14.70;99.90
54832;DHT22;40730;53.068;6.572;2023-06-22T02:14:46;14.70;99.90
54832;DHT22;40730;53.068;6.572;2023-06-22T02:17:12;14.70;99.90
54832;DHT22;40730;53.068;6.572;2023-06-22T02:19:41;14.70;99.90
54832;DHT22;40730;53.068;6.572;2023-06-22T02:22:06;14.70;99.90
54832;DHT22;40730;53.068;6.572;2023-06-22T02:24:32;14.70;99.90
54832;DHT22;40730;53.068;6.572;2023-06-22T02:27:00;14.60;99.90
54832;DHT22;40730;53.068;6.572;2023-06-22T02:29:26;14.50;99.90
54832;DHT22;40730;53.068;6.572;2023-06-22T02:31:53;14.50;99.90
54832;DHT22;40730;53.068;6.572;2023-06-22T02:34:18;14.50;99.90
54832;DHT22;40730;53.068;6.572;2023-06-22T02:36:48;14.50;99.90
54832;DHT22;40730;53.068;6.572;2023-06-22T02:39:24;14.30;99.90
54832;DHT22;40730;53.068;6.572;2023-06-22T02:41:51;14.30;99.90
54832;DHT22;40730;53.068;6.572;2023-06-22T02:44:18;14.20;99.90
54832;DHT22;40730;53.068;6.572;2023-06-22T02:46:44;14.20;99.90
54832;DHT22;40730;53.068;6.572;2023-06-22T02:49:10;14.10;99.90
54832;DHT22;40730;53.068;6.572;2023-06-22T02:51:38;14.00;99.90
54832;DHT22;40730;53.068;6.572;2023-06-22T02:54:05;14.00;99.90
54832;DHT22;40730;53.068;6.572;2023-06-22T02:56:31;14.10;99.90
54832;DHT22;40730;53.068;6.572;2023-06-22T02:58:57;14.10;99.90
54832;DHT22;40730;53.068;6.572;2023-06-22T03:01:29;14.00;99.90
54832;DHT22;40730;53.068;6.572;2023-06-22T03:03:56;14.00;99.90
54832;DHT22;40730;53.068;6.572;2023-06-22T03:06:22;13.90;99.90
54832;DHT22;40730;53.068;6.572;2023-06-22T03:08:51;13.80;99.90
54832;DHT22;40730;53.068;6.572;2023-06-22T03:11:17;13.80;99.90
54832;DHT22;40730;53.068;6.572;2023-06-22T03:13:43;13.70;99.90
54832;DHT22;40730;53.068;6.572;2023-06-22T03:16:09;13.70;99.90
54832;DHT22;40730;53.068;6.572;2023-06-22T03:18:34;13.60;99.90
54832;DHT22;40730;53.068;6.572;2023-06-22T03:21:00;13.60;99.90
54832;DHT22;40730;53.068;6.572;2023-06-22T03:23:27;13.60;99.90
54832;DHT22;40730;53.068;6.572;2023-06-22T03:25:53;13.60;99.90
54832;DHT22;40730;53.068;6.572;2023-06-22T03:28:21;13.60;99.90
54832;DHT22;40730;53.068;6.572;2023-06-22T03:30:47;13.70;99.90
54832;DHT22;40730;53.068;6.572;2023-06-22T03:33:12;13.70;99.90
54832;DHT22;40730;53.068;6.572;2023-06-22T03:35:38;13.70;99.90
54832;DHT22;40730;53.068;6.572;2023-06-22T03:38:04;13.80;99.90
54832;DHT22;40730;53.068;6.572;2023-06-22T03:40:29;13.80;99.90
54832;DHT22;40730;53.068;6.572;2023-06-22T03:42:55;13.90;99.90
54832;DHT22;40730;53.068;6.572;2023-06-22T03:45:21;13.90;99.90
54832;DHT22;40730;53.068;6.572;2023-06-22T03:47:46;14.00;99.90
54832;DHT22;40730;53.068;6.572;2023-06-22T03:50:12;14.00;99.90
54832;DHT22;40730;53.068;6.572;2023-06-22T03:52:39;14.10;99.90
54832;DHT22;40730;53.068;6.572;2023-06-22T03:55:06;14.30;99.90
54832;DHT22;40730;53.068;6.572;2023-06-22T03:57:32;14.40;99.90
54832;DHT22;40730;53.068;6.572;2023-06-22T03:59:58;14.50;99.90
54832;DHT22;40730;53.068;6.572;2023-06-22T04:02:24;14.60;99.90
54832;DHT22;40730;53.068;6.572;2023-06-22T04:04:50;14.70;99.90
54832;DHT22;40730;53.068;6.572;2023-06-22T04:07:15;14.80;99.90
54832;DHT22;40730;53.068;6.572;2023-06-22T04:09:41;14.90;99.90
54832;DHT22;40730;53.068;6.572;2023-06-22T04:12:07;15.10;99.90
54832;DHT22;40730;53.068;6.572;2023-06-22T04:14:33;15.20;99.90
54832;DHT22;40730;53.068;6.572;2023-06-22T04:16:58;15.30;99.90
54832;DHT22;40730;53.068;6.572;2023-06-22T04:19:24;15.40;99.90
54832;DHT22;40730;53.068;6.572;2023-06-22T04:21:50;15.40;99.90
54832;DHT22;40730;53.068;6.572;2023-06-22T04:24:15;15.50;99.90
54832;DHT22;40730;53.068;6.572;2023-06-22T04:26:41;15.70;99.90
54832;DHT22;40730;53.068;6.572;2023-06-22T04:29:12;15.80;99.90
54832;DHT22;40730;53.068;6.572;2023-06-22T04:31:38;15.80;99.90
54832;DHT22;40730;53.068;6.572;2023-06-22T04:34:05;15.80;99.90
54832;DHT22;40730;53.068;6.572;2023-06-22T04:36:35;15.90;99.90
54832;DHT22;40730;53.068;6.572;2023-06-22T04:39:11;16.00;99.90
54832;DHT22;40730;53.068;6.572;2023-06-22T04:41:40;16.10;99.90
54832;DHT22;40730;53.068;6.572;2023-06-22T04:44:09;16.20;99.90
54832;DHT22;40730;53.068;6.572;2023-06-22T04:46:35;16.40;99.90
54832;DHT22;40730;53.068;6.572;2023-06-22T04:49:10;16.50;99.90
54832;DHT22;40730;53.068;6.572;2023-06-22T04:51:42;16.50;99.90
54832;DHT22;40730;53.068;6.572;2023-06-22T04:54:08;16.60;99.90
54832;DHT22;40730;53.068;6.572;2023-06-22T04:56:35;16.60;99.90
54832;DHT22;40730;53.068;6.572;2023-06-22T04:59:01;16.70;99.90
54832;DHT22;40730;53.068;6.572;2023-06-22T05:01:27;16.80;99.90
54832;DHT22;40730;53.068;6.572;2023-06-22T05:03:52;16.80;99.90
54832;DHT22;40730;53.068;6.572;2023-06-22T05:06:22;16.90;99.90
54832;DHT22;40730;53.068;6.572;2023-06-22T05:08:55;17.00;99.90
54832;DHT22;40730;53.068;6.572;2023-06-22T05:11:26;16.90;99.90
54832;DHT22;40730;53.068;6.572;2023-06-22T05:13:52;17.00;99.90
54832;DHT22;40730;53.068;6.572;2023-06-22T05:16:17;16.90;99.90
54832;DHT22;40730;53.068;6.572;2023-06-22T05:18:48;17.00;99.90
54832;DHT22;40730;53.068;6.572;2023-06-22T05:21:14;17.10;99.90
54832;DHT22;40730;53.068;6.572;2023-06-22T05:23:39;17.20;99.90
54832;DHT22;40730;53.068;6.572;2023-06-22T05:26:05;17.20;99.90
54832;DHT22;40730;53.068;6.572;2023-06-22T05:28:30;17.40;99.90
54832;DHT22;40730;53.068;6.572;2023-06-22T05:30:56;17.40;99.90
54832;DHT22;40730;53.068;6.572;2023-06-22T05:33:21;17.50;99.90
54832;DHT22;40730;53.068;6.572;2023-06-22T05:35:47;17.60;99.90
54832;DHT22;40730;53.068;6.572;2023-06-22T05:38:13;17.70;99.90
54832;DHT22;40730;53.068;6.572;2023-06-22T05:40:39;17.80;99.90
54832;DHT22;40730;53.068;6.572;2023-06-22T05:43:04;17.90;99.90
54832;DHT22;40730;53.068;6.572;2023-06-22T05:45:30;17.90;99.90
54832;DHT22;40730;53.068;6.572;2023-06-22T05:47:55;18.00;99.90
54832;DHT22;40730;53.068;6.572;2023-06-22T05:50:21;18.00;99.90
54832;DHT22;40730;53.068;6.572;2023-06-22T05:52:47;18.10;99.90
54832;DHT22;40730;53.068;6.572;2023-06-22T05:55:12;18.20;99.90
54832;DHT22;40730;53.068;6.572;2023-06-22T05:57:38;18.20;99.90
54832;DHT22;40730;53.068;6.572;2023-06-22T06:00:04;18.30;99.90
54832;DHT22;40730;53.068;6.572;2023-06-22T06:02:33;18.40;99.90
54832;DHT22;40730;53.068;6.572;2023-06-22T06:04:59;18.40;99.90
54832;DHT22;40730;53.068;6.572;2023-06-22T06:07:24;18.60;99.90
54832;DHT22;40730;53.068;6.572;2023-06-22T06:09:51;18.60;99.90
54832;DHT22;40730;53.068;6.572;2023-06-22T06:12:17;18.70;99.90
54832;DHT22;40730;53.068;6.572;2023-06-22T06:14:42;18.80;99.90
54832;DHT22;40730;53.068;6.572;2023-06-22T06:17:08;18.90;99.90
54832;DHT22;40730;53.068;6.572;2023-06-22T06:19:33;19.00;99.90
54832;DHT22;40730;53.068;6.572;2023-06-22T06:21:59;19.10;99.90
54832;DHT22;40730;53.068;6.572;2023-06-22T06:24:26;19.10;99.90
54832;DHT22;40730;53.068;6.572;2023-06-22T06:26:51;19.30;99.90
54832;DHT22;40730;53.068;6.572;2023-06-22T06:29:17;19.30;99.90
54832;DHT22;40730;53.068;6.572;2023-06-22T06:31:42;19.40;99.90
54832;DHT22;40730;53.068;6.572;2023-06-22T06:34:08;19.50;99.90
54832;DHT22;40730;53.068;6.572;2023-06-22T06:36:34;19.70;99.90
54832;DHT22;40730;53.068;6.572;2023-06-22T06:38:59;19.90;99.90
54832;DHT22;40730;53.068;6.572;2023-06-22T06:41:25;20.10;99.90
54832;DHT22;40730;53.068;6.572;2023-06-22T06:43:50;20.30;99.90
54832;DHT22;40730;53.068;6.572;2023-06-22T06:46:17;20.40;99.90
54832;DHT22;40730;53.068;6.572;2023-06-22T06:48:44;20.70;99.90
54832;DHT22;40730;53.068;6.572;2023-06-22T06:51:10;20.90;99.90
54832;DHT22;40730;53.068;6.572;2023-06-22T06:53:37;21.00;99.90
54832;DHT22;40730;53.068;6.572;2023-06-22T06:56:03;21.10;99.90
54832;DHT22;40730;53.068;6.572;2023-06-22T06:58:31;21.40;99.90
54832;DHT22;40730;53.068;6.572;2023-06-22T07:00:56;21.50;99.90
54832;DHT22;40730;53.068;6.572;2023-06-22T07:03:22;21.50;99.90
54832;DHT22;40730;53.068;6.572;2023-06-22T07:05:48;21.60;99.90
54832;DHT22;40730;53.068;6.572;2023-06-22T07:08:13;21.70;99.90
54832;DHT22;40730;53.068;6.572;2023-06-22T07:10:39;21.70;99.90
54832;DHT22;40730;53.068;6.572;2023-06-22T07:13:05;21.70;99.90
54832;DHT22;40730;53.068;6.572;2023-06-22T07:15:30;21.90;99.90
54832;DHT22;40730;53.068;6.572;2023-06-22T07:17:56;21.90;99.90
54832;DHT22;40730;53.068;6.572;2023-06-22T07:20:21;22.00;99.90
54832;DHT22;40730;53.068;6.572;2023-06-22T07:22:47;22.00;99.90
54832;DHT22;40730;53.068;6.572;2023-06-22T07:25:13;22.00;99.90
54832;DHT22;40730;53.068;6.572;2023-06-22T07:27:56;22.00;99.90
54832;DHT22;40730;53.068;6.572;2023-06-22T07:30:22;21.90;99.90
54832;DHT22;40730;53.068;6.572;2023-06-22T07:32:48;21.80;99.90
54832;DHT22;40730;53.068;6.572;2023-06-22T07:35:14;21.90;99.90
54832;DHT22;40730;53.068;6.572;2023-06-22T07:37:42;22.00;99.90
54832;DHT22;40730;53.068;6.572;2023-06-22T07:40:08;22.00;99.90
54832;DHT22;40730;53.068;6.572;2023-06-22T07:42:34;22.20;99.90
54832;DHT22;40730;53.068;6.572;2023-06-22T07:45:00;22.30;99.90
54832;DHT22;40730;53.068;6.572;2023-06-22T07:47:27;22.30;99.90
54832;DHT22;40730;53.068;6.572;2023-06-22T07:49:54;22.20;99.90
54832;DHT22;40730;53.068;6.572;2023-06-22T07:52:21;22.20;99.90
54832;DHT22;40730;53.068;6.572;2023-06-22T07:54:47;22.30;99.90
54832;DHT22;40730;53.068;6.572;2023-06-22T07:57:12;22.30;99.90
54832;DHT22;40730;53.068;6.572;2023-06-22T07:59:38;22.50;99.90
54832;DHT22;40730;53.068;6.572;2023-06-22T08:02:04;22.80;99.90
54832;DHT22;40730;53.068;6.572;2023-06-22T08:04:30;22.90;99.90
54832;DHT22;40730;53.068;6.572;2023-06-22T08:07:00;23.00;99.90
54832;DHT22;40730;53.068;6.572;2023-06-22T08:09:28;23.00;99.90
54832;DHT22;40730;53.068;6.572;2023-06-22T08:11:54;23.20;99.90
54832;DHT22;40730;53.068;6.572;2023-06-22T08:14:25;23.00;99.90
54832;DHT22;40730;53.068;6.572;2023-06-22T08:16:51;22.80;99.90
54832;DHT22;40730;53.068;6.572;2023-06-22T08:19:17;22.90;99.90
54832;DHT22;40730;53.068;6.572;2023-06-22T08:21:43;23.10;99.90
54832;DHT22;40730;53.068;6.572;2023-06-22T08:24:09;23.30;99.90
54832;DHT22;40730;53.068;6.572;2023-06-22T08:26:34;23.80;99.90
54832;DHT22;40730;53.068;6.572;2023-06-22T08:29:05;24.00;99.90
54832;DHT22;40730;53.068;6.572;2023-06-22T08:31:31;23.90;99.90
54832;DHT22;40730;53.068;6.572;2023-06-22T08:33:58;23.90;99.90
54832;DHT22;40730;53.068;6.572;2023-06-22T08:36:24;23.90;99.90
54832;DHT22;40730;53.068;6.572;2023-06-22T08:38:50;24.00;99.90
54832;DHT22;40730;53.068;6.572;2023-06-22T08:41:17;24.30;99.90
54832;DHT22;40730;53.068;6.572;2023-06-22T08:43:43;24.50;99.90
54832;DHT22;40730;53.068;6.572;2023-06-22T08:46:10;24.80;99.90
54832;DHT22;40730;53.068;6.572;2023-06-22T08:48:36;24.70;99.90
54832;DHT22;40730;53.068;6.572;2023-06-22T08:51:04;24.50;99.90
54832;DHT22;40730;53.068;6.572;2023-06-22T08:53:30;24.50;99.90
54832;DHT22;40730;53.068;6.572;2023-06-22T08:55:55;24.70;99.90
54832;DHT22;40730;53.068;6.572;2023-06-22T08:58:21;24.80;99.90
54832;DHT22;40730;53.068;6.572;2023-06-22T09:00:48;25.10;99.90
54832;DHT22;40730;53.068;6.572;2023-06-22T09:03:13;25.20;99.90
54832;DHT22;40730;53.068;6.572;2023-06-22T09:05:39;25.40;99.90
54832;DHT22;40730;53.068;6.572;2023-06-22T09:08:05;25.70;99.90
54832;DHT22;40730;53.068;6.572;2023-06-22T09:10:30;25.90;99.90
54832;DHT22;40730;53.068;6.572;2023-06-22T09:12:57;25.90;99.90
54832;DHT22;40730;53.068;6.572;2023-06-22T09:15:23;25.80;99.90
54832;DHT22;40730;53.068;6.572;2023-06-22T09:17:48;26.20;99.90
54832;DHT22;40730;53.068;6.572;2023-06-22T09:20:14;25.70;99.90
54832;DHT22;40730;53.068;6.572;2023-06-22T09:22:41;25.60;99.90
54832;DHT22;40730;53.068;6.572;2023-06-22T09:25:07;25.60;99.90
54832;DHT22;40730;53.068;6.572;2023-06-22T09:27:33;25.50;99.90
54832;DHT22;40730;53.068;6.572;2023-06-22T09:29:58;25.30;99.90
54832;DHT22;40730;53.068;6.572;2023-06-22T09:32:24;25.40;99.90
54832;DHT22;40730;53.068;6.572;2023-06-22T09:34:51;25.60;99.90
54832;DHT22;40730;53.068;6.572;2023-06-22T09:37:16;25.80;99.90
54832;DHT22;40730;53.068;6.572;2023-06-22T09:39:42;26.20;99.90
54832;DHT22;40730;53.068;6.572;2023-06-22T09:42:08;26.20;99.90
54832;DHT22;40730;53.068;6.572;2023-06-22T09:44:33;25.90;99.90
54832;DHT22;40730;53.068;6.572;2023-06-22T09:47:00;25.90;99.90
54832;DHT22;40730;53.068;6.572;2023-06-22T09:49:25;25.90;99.90
54832;DHT22;40730;53.068;6.572;2023-06-22T09:51:51;26.10;99.90
54832;DHT22;40730;53.068;6.572;2023-06-22T09:54:18;26.20;99.90
54832;DHT22;40730;53.068;6.572;2023-06-22T09:56:43;26.60;99.90
54832;DHT22;40730;53.068;6.572;2023-06-22T09:59:09;27.00;99.90
54832;DHT22;40730;53.068;6.572;2023-06-22T10:01:35;27.00;99.20
54832;DHT22;40730;53.068;6.572;2023-06-22T10:04:02;27.00;99.20
54832;DHT22;40730;53.068;6.572;2023-06-22T10:06:28;27.20;98.90
54832;DHT22;40730;53.068;6.572;2023-06-22T10:08:53;27.20;98.70
54832;DHT22;40730;53.068;6.572;2023-06-22T10:11:19;27.10;98.00
54832;DHT22;40730;53.068;6.572;2023-06-22T10:13:45;27.20;97.90
54832;DHT22;40730;53.068;6.572;2023-06-22T10:16:10;27.20;99.10
54832;DHT22;40730;53.068;6.572;2023-06-22T10:18:36;27.40;98.50
54832;DHT22;40730;53.068;6.572;2023-06-22T10:21:02;27.80;97.50
54832;DHT22;40730;53.068;6.572;2023-06-22T10:23:27;27.70;97.20
54832;DHT22;40730;53.068;6.572;2023-06-22T10:25:53;27.70;97.90
54832;DHT22;40730;53.068;6.572;2023-06-22T10:28:19;27.60;96.90
54832;DHT22;40730;53.068;6.572;2023-06-22T10:30:45;27.40;96.00
54832;DHT22;40730;53.068;6.572;2023-06-22T10:33:11;27.10;96.40
54832;DHT22;40730;53.068;6.572;2023-06-22T10:35:37;27.10;96.90
54832;DHT22;40730;53.068;6.572;2023-06-22T10:38:06;27.10;97.10
54832;DHT22;40730;53.068;6.572;2023-06-22T10:40:32;27.10;96.60
54832;DHT22;40730;53.068;6.572;2023-06-22T10:42:58;27.30;96.60
54832;DHT22;40730;53.068;6.572;2023-06-22T10:45:24;27.70;96.30
54832;DHT22;40730;53.068;6.572;2023-06-22T10:47:49;28.10;95.80
54832;DHT22;40730;53.068;6.572;2023-06-22T10:50:15;28.20;95.80
54832;DHT22;40730;53.068;6.572;2023-06-22T10:52:41;27.90;94.50
54832;DHT22;40730;53.068;6.572;2023-06-22T10:55:08;27.90;94.90
54832;DHT22;40730;53.068;6.572;2023-06-22T10:57:34;27.90;95.20
54832;DHT22;40730;53.068;6.572;2023-06-22T10:59:59;27.80;95.00
54832;DHT22;40730;53.068;6.572;2023-06-22T11:02:25;27.60;94.60
54832;DHT22;40730;53.068;6.572;2023-06-22T11:04:53;27.40;94.70
54832;DHT22;40730;53.068;6.572;2023-06-22T11:07:19;27.20;95.50
54832;DHT22;40730;53.068;6.572;2023-06-22T11:09:44;27.20;96.30
54832;DHT22;40730;53.068;6.572;2023-06-22T11:12:10;27.10;95.70
54832;DHT22;40730;53.068;6.572;2023-06-22T11:14:36;27.20;95.60
54832;DHT22;40730;53.068;6.572;2023-06-22T11:17:01;27.10;95.30
54832;DHT22;40730;53.068;6.572;2023-06-22T11:19:27;27.30;95.60
54832;DHT22;40730;53.068;6.572;2023-06-22T11:21:52;27.30;96.00
54832;DHT22;40730;53.068;6.572;2023-06-22T11:24:18;27.10;95.50
54832;DHT22;40730;53.068;6.572;2023-06-22T11:26:44;26.80;95.50
54832;DHT22;40730;53.068;6.572;2023-06-22T11:29:09;26.80;95.80
54832;DHT22;40730;53.068;6.572;2023-06-22T11:31:36;26.80;96.50
54832;DHT22;40730;53.068;6.572;2023-06-22T11:34:02;27.00;96.60
54832;DHT22;40730;53.068;6.572;2023-06-22T11:36:28;27.10;96.30
54832;DHT22;40730;53.068;6.572;2023-06-22T11:38:54;26.90;96.60
54832;DHT22;40730;53.068;6.572;2023-06-22T11:41:20;26.80;97.20
54832;DHT22;40730;53.068;6.572;2023-06-22T11:43:46;26.70;96.40
54832;DHT22;40730;53.068;6.572;2023-06-22T11:46:11;26.80;96.40
54832;DHT22;40730;53.068;6.572;2023-06-22T11:48:37;26.80;95.90
54832;DHT22;40730;53.068;6.572;2023-06-22T11:51:03;26.50;96.30
54832;DHT22;40730;53.068;6.572;2023-06-22T11:53:29;26.70;97.20
54832;DHT22;40730;53.068;6.572;2023-06-22T11:55:55;26.90;96.80
54832;DHT22;40730;53.068;6.572;2023-06-22T11:58:21;26.80;96.70
54832;DHT22;40730;53.068;6.572;2023-06-22T12:00:47;27.00;96.70
54832;DHT22;40730;53.068;6.572;2023-06-22T12:03:13;26.90;96.50
54832;DHT22;40730;53.068;6.572;2023-06-22T12:05:40;26.60;96.50
54832;DHT22;40730;53.068;6.572;2023-06-22T12:08:06;26.30;97.00
54832;DHT22;40730;53.068;6.572;2023-06-22T12:10:32;26.30;97.30
54832;DHT22;40730;53.068;6.572;2023-06-22T12:12:57;26.30;97.30
54832;DHT22;40730;53.068;6.572;2023-06-22T12:15:25;26.10;97.20
54832;DHT22;40730;53.068;6.572;2023-06-22T12:17:51;26.10;97.90
54832;DHT22;40730;53.068;6.572;2023-06-22T12:20:17;26.20;98.10
54832;DHT22;40730;53.068;6.572;2023-06-22T12:22:43;26.40;96.70
54832;DHT22;40730;53.068;6.572;2023-06-22T12:25:09;26.50;96.00
54832;DHT22;40730;53.068;6.572;2023-06-22T12:27:35;26.30;96.40
54832;DHT22;40730;53.068;6.572;2023-06-22T12:30:01;26.10;96.60
54832;DHT22;40730;53.068;6.572;2023-06-22T12:32:27;26.00;96.40
54832;DHT22;40730;53.068;6.572;2023-06-22T12:34:53;26.00;96.30
54832;DHT22;40730;53.068;6.572;2023-06-22T12:37:18;25.90;96.30
54832;DHT22;40730;53.068;6.572;2023-06-22T12:39:44;26.00;95.80
54832;DHT22;40730;53.068;6.572;2023-06-22T12:42:10;26.00;96.40
54832;DHT22;40730;53.068;6.572;2023-06-22T12:44:40;26.00;95.70
54832;DHT22;40730;53.068;6.572;2023-06-22T12:47:06;25.90;95.60
54832;DHT22;40730;53.068;6.572;2023-06-22T12:49:34;25.90;96.90
54832;DHT22;40730;53.068;6.572;2023-06-22T12:52:00;25.90;97.10
54832;DHT22;40730;53.068;6.572;2023-06-22T12:54:26;26.00;97.00
54832;DHT22;40730;53.068;6.572;2023-06-22T12:56:51;26.00;96.90
54832;DHT22;40730;53.068;6.572;2023-06-22T12:59:17;25.70;99.10
54832;DHT22;40730;53.068;6.572;2023-06-22T13:01:43;25.50;99.90
54832;DHT22;40730;53.068;6.572;2023-06-22T13:04:11;25.30;99.90
54832;DHT22;40730;53.068;6.572;2023-06-22T13:06:40;25.10;99.90
54832;DHT22;40730;53.068;6.572;2023-06-22T13:09:06;25.10;99.90
54832;DHT22;40730;53.068;6.572;2023-06-22T13:11:31;25.00;99.90
54832;DHT22;40730;53.068;6.572;2023-06-22T13:13:57;25.00;99.90
54832;DHT22;40730;53.068;6.572;2023-06-22T13:16:22;25.00;99.90
54832;DHT22;40730;53.068;6.572;2023-06-22T13:18:48;24.90;99.90
54832;DHT22;40730;53.068;6.572;2023-06-22T13:21:14;24.80;99.90
54832;DHT22;40730;53.068;6.572;2023-06-22T13:23:40;24.70;99.90
54832;DHT22;40730;53.068;6.572;2023-06-22T13:26:05;24.70;99.90
54832;DHT22;40730;53.068;6.572;2023-06-22T13:28:31;24.70;99.90
54832;DHT22;40730;53.068;6.572;2023-06-22T13:30:57;24.60;99.90
54832;DHT22;40730;53.068;6.572;2023-06-22T13:33:23;24.50;99.90
54832;DHT22;40730;53.068;6.572;2023-06-22T13:35:48;24.50;99.90
54832;DHT22;40730;53.068;6.572;2023-06-22T13:38:14;24.50;99.90
54832;DHT22;40730;53.068;6.572;2023-06-22T13:40:39;24.50;99.90
54832;DHT22;40730;53.068;6.572;2023-06-22T13:43:05;24.50;99.90
54832;DHT22;40730;53.068;6.572;2023-06-22T13:45:31;24.40;99.90
54832;DHT22;40730;53.068;6.572;2023-06-22T13:47:57;24.30;99.90
54832;DHT22;40730;53.068;6.572;2023-06-22T13:50:23;24.30;99.90
54832;DHT22;40730;53.068;6.572;2023-06-22T13:52:48;24.20;99.90
54832;DHT22;40730;53.068;6.572;2023-06-22T13:55:14;24.10;99.90
54832;DHT22;40730;53.068;6.572;2023-06-22T13:57:40;24.00;99.90
54832;DHT22;40730;53.068;6.572;2023-06-22T14:00:07;23.80;99.90
54832;DHT22;40730;53.068;6.572;2023-06-22T14:02:38;23.70;99.90
54832;DHT22;40730;53.068;6.572;2023-06-22T14:05:04;23.60;99.90
54832;DHT22;40730;53.068;6.572;2023-06-22T14:07:29;23.50;99.90
54832;DHT22;40730;53.068;6.572;2023-06-22T14:09:55;23.40;99.90
54832;DHT22;40730;53.068;6.572;2023-06-22T14:12:20;23.30;99.90
54832;DHT22;40730;53.068;6.572;2023-06-22T14:14:46;23.30;99.90
54832;DHT22;40730;53.068;6.572;2023-06-22T14:17:12;23.20;99.90
54832;DHT22;40730;53.068;6.572;2023-06-22T14:19:37;23.20;99.90
54832;DHT22;40730;53.068;6.572;2023-06-22T14:22:03;23.20;99.90
54832;DHT22;40730;53.068;6.572;2023-06-22T14:24:29;23.10;99.90
54832;DHT22;40730;53.068;6.572;2023-06-22T14:26:55;23.10;99.90
54832;DHT22;40730;53.068;6.572;2023-06-22T14:29:24;23.10;99.90
54832;DHT22;40730;53.068;6.572;2023-06-22T14:31:50;23.00;99.90
54832;DHT22;40730;53.068;6.572;2023-06-22T14:34:16;23.00;99.90
54832;DHT22;40730;53.068;6.572;2023-06-22T14:36:42;23.00;99.90
54832;DHT22;40730;53.068;6.572;2023-06-22T14:39:09;23.10;99.90
54832;DHT22;40730;53.068;6.572;2023-06-22T14:41:34;23.00;99.90
54832;DHT22;40730;53.068;6.572;2023-06-22T14:44:00;23.00;99.90
54832;DHT22;40730;53.068;6.572;2023-06-22T14:46:27;22.90;99.90
54832;DHT22;40730;53.068;6.572;2023-06-22T14:48:53;22.90;99.90
54832;DHT22;40730;53.068;6.572;2023-06-22T14:51:19;22.90;99.90
54832;DHT22;40730;53.068;6.572;2023-06-22T14:53:45;22.80;99.90
54832;DHT22;40730;53.068;6.572;2023-06-22T14:56:12;22.80;99.90
54832;DHT22;40730;53.068;6.572;2023-06-22T14:58:40;22.80;99.90
54832;DHT22;40730;53.068;6.572;2023-06-22T15:01:06;22.70;99.90
54832;DHT22;40730;53.068;6.572;2023-06-22T15:03:34;22.60;99.90
54832;DHT22;40730;53.068;6.572;2023-06-22T15:06:01;22.60;99.90
54832;DHT22;40730;53.068;6.572;2023-06-22T15:08:28;22.50;99.90
54832;DHT22;40730;53.068;6.572;2023-06-22T15:10:54;22.50;99.90
54832;DHT22;40730;53.068;6.572;2023-06-22T15:13:20;22.40;99.90
54832;DHT22;40730;53.068;6.572;2023-06-22T15:15:47;22.40;99.90
54832;DHT22;40730;53.068;6.572;2023-06-22T15:18:14;22.30;99.90
54832;DHT22;40730;53.068;6.572;2023-06-22T15:20:40;22.30;99.90
54832;DHT22;40730;53.068;6.572;2023-06-22T15:23:07;22.20;99.90
54832;DHT22;40730;53.068;6.572;2023-06-22T15:25:34;22.20;99.90
54832;DHT22;40730;53.068;6.572;2023-06-22T15:27:59;22.10;99.90
54832;DHT22;40730;53.068;6.572;2023-06-22T15:30:25;22.10;99.90